createdAt,value
2022-10-09T00:01:44.782Z,6.22
2022-10-09T00:04:11.881Z,9.57
2022-10-09T00:06:39.411Z,8.43
2022-10-09T00:09:06.554Z,7.32
2022-10-09T00:11:34.638Z,8.27
2022-10-09T00:14:02.092Z,11.23
2022-10-09T00:16:29.545Z,10.10
2022-10-09T00:18:56.722Z,10.52
2022-10-09T00:21:28.482Z,12.32
2022-10-09T00:23:57.414Z,16.48
2022-10-09T00:26:24.817Z,9.73
2022-10-09T00:28:51.993Z,13.90
2022-10-09T00:31:19.845Z,11.00
2022-10-09T00:33:47.176Z,12.43
2022-10-09T00:36:16.061Z,11.02
2022-10-09T00:38:43.466Z,11.48
2022-10-09T00:41:13.370Z,6.50
2022-10-09T00:43:40.445Z,12.00
2022-10-09T00:46:07.783Z,10.15
2022-10-09T00:48:34.907Z,11.73
2022-10-09T00:51:02.656Z,11.95
2022-10-09T00:53:30.872Z,8.50
2022-10-09T00:55:58.506Z,10.20
2022-10-09T00:58:25.948Z,12.10
2022-10-09T01:00:53.566Z,7.50
2022-10-09T01:03:20.882Z,9.00
2022-10-09T01:05:50.738Z,8.73
2022-10-09T01:08:27.706Z,9.93
2022-10-09T01:11:00.142Z,11.57
2022-10-09T01:13:36.207Z,10.80
2022-10-09T01:16:12.805Z,10.63
2022-10-09T01:18:47.693Z,9.88
2022-10-09T01:21:20.461Z,8.80
2022-10-09T01:26:17.573Z,10.23
2022-10-09T01:28:47.006Z,9.65
2022-10-09T01:31:14.915Z,7.95
2022-10-09T01:33:42.317Z,13.48
2022-10-09T01:36:10.639Z,11.32
2022-10-09T01:38:39.811Z,12.13
2022-10-09T01:41:08.837Z,15.07
2022-10-09T01:43:35.930Z,10.90
2022-10-09T01:46:21.695Z,12.30
2022-10-09T01:48:53.715Z,12.85
2022-10-09T01:51:22.562Z,14.83
2022-10-09T01:53:51.901Z,11.57
2022-10-09T01:56:21.694Z,16.45
2022-10-09T01:58:59.981Z,14.98
2022-10-09T02:01:31.903Z,15.43
2022-10-09T02:04:00.362Z,11.00
2022-10-09T02:06:28.952Z,9.98
2022-10-09T02:08:57.800Z,10.05
2022-10-09T02:11:26.912Z,8.02
2022-10-09T02:13:54.158Z,10.27
2022-10-09T02:16:36.782Z,10.95
2022-10-09T02:19:08.612Z,13.18
2022-10-09T02:21:42.147Z,10.60
2022-10-09T02:24:13.961Z,12.20
2022-10-09T02:26:41.490Z,13.30
2022-10-09T02:29:08.698Z,13.80
2022-10-09T02:31:37.702Z,13.68
2022-10-09T02:34:06.447Z,11.15
2022-10-09T02:36:34.089Z,11.77
2022-10-09T02:39:01.545Z,10.13
2022-10-09T02:41:28.684Z,11.55
2022-10-09T02:43:56.078Z,8.40
2022-10-09T02:46:23.595Z,8.65
2022-10-09T02:48:50.797Z,13.30
2022-10-09T02:51:18.015Z,12.55
2022-10-09T02:53:45.488Z,9.55
2022-10-09T02:56:12.681Z,12.10
2022-10-09T02:58:40.183Z,7.38
2022-10-09T03:01:07.745Z,11.02
2022-10-09T03:03:34.984Z,7.57
2022-10-09T03:06:05.249Z,10.68
2022-10-09T03:08:32.383Z,8.65
2022-10-09T03:10:59.476Z,11.50
2022-10-09T03:13:26.615Z,18.45
2022-10-09T03:15:53.848Z,7.90
2022-10-09T03:18:21.205Z,12.77
2022-10-09T03:20:48.429Z,10.48
2022-10-09T03:23:15.500Z,8.50
2022-10-09T03:25:42.587Z,6.88
2022-10-09T03:28:09.753Z,11.25
2022-10-09T03:30:41.071Z,10.00
2022-10-09T03:33:08.147Z,11.05
2022-10-09T03:35:35.219Z,8.45
2022-10-09T03:38:02.301Z,11.13
2022-10-09T03:40:29.414Z,8.50
2022-10-09T03:42:56.498Z,7.95
2022-10-09T03:45:23.556Z,12.57
2022-10-09T03:47:50.631Z,10.63
2022-10-09T03:50:17.774Z,11.13
2022-10-09T03:52:44.969Z,11.13
2022-10-09T03:55:12.067Z,10.25
2022-10-09T03:57:39.156Z,12.13
2022-10-09T04:00:07.107Z,9.00
2022-10-09T04:02:34.774Z,8.50
2022-10-09T04:05:01.959Z,6.38
2022-10-09T04:07:29.106Z,9.75
2022-10-09T04:09:56.353Z,10.52
2022-10-09T04:12:23.464Z,11.82
2022-10-09T04:14:50.674Z,10.00
2022-10-09T04:17:17.952Z,9.52
2022-10-09T04:19:45.068Z,8.85
2022-10-09T04:22:12.194Z,12.80
2022-10-09T04:24:39.283Z,9.77
2022-10-09T04:27:06.369Z,9.73
2022-10-09T04:29:33.435Z,8.40
2022-10-09T04:32:00.629Z,10.57
2022-10-09T04:34:27.708Z,6.13
2022-10-09T04:36:54.859Z,10.82
2022-10-09T04:39:21.927Z,9.88
2022-10-09T04:41:49.032Z,8.48
2022-10-09T04:44:16.177Z,12.00
2022-10-09T04:46:43.270Z,10.32
2022-10-09T04:49:14.258Z,13.73
2022-10-09T04:51:41.669Z,9.55
2022-10-09T04:54:08.750Z,9.40
2022-10-09T04:56:35.810Z,7.68
2022-10-09T04:59:02.911Z,15.32
2022-10-09T05:01:34.205Z,16.52
2022-10-09T05:04:04.269Z,14.35
2022-10-09T05:06:31.338Z,10.95
2022-10-09T05:08:58.403Z,13.07
2022-10-09T05:11:25.956Z,12.85
2022-10-09T05:13:54.068Z,12.15
2022-10-09T05:16:22.816Z,10.27
2022-10-09T05:18:51.341Z,8.73
2022-10-09T05:21:18.586Z,9.27
2022-10-09T05:23:45.894Z,8.18
2022-10-09T05:26:14.834Z,13.38
2022-10-09T05:28:42.103Z,11.88
2022-10-09T05:31:09.706Z,10.95
2022-10-09T05:33:37.211Z,13.55
2022-10-09T05:36:05.801Z,10.85
2022-10-09T05:38:34.726Z,13.00
2022-10-09T05:41:03.590Z,10.45
2022-10-09T05:43:31.951Z,12.85
2022-10-09T05:46:09.446Z,9.82
2022-10-09T05:48:37.017Z,9.85
2022-10-09T05:51:08.600Z,9.98
2022-10-09T05:53:35.742Z,9.63
2022-10-09T05:56:18.021Z,10.68
2022-10-09T05:58:45.789Z,14.00
2022-10-09T06:01:13.044Z,17.00
2022-10-09T06:03:40.199Z,14.60
2022-10-09T06:06:08.712Z,21.13
2022-10-09T06:08:36.653Z,12.88
2022-10-09T06:11:12.998Z,13.43
2022-10-09T06:13:40.618Z,12.20
2022-10-09T06:16:07.807Z,9.18
2022-10-09T06:18:34.985Z,14.93
2022-10-09T06:21:02.937Z,9.45
2022-10-09T06:23:31.470Z,7.80
2022-10-09T06:26:00.220Z,10.85
2022-10-09T06:28:28.978Z,9.35
2022-10-09T06:31:01.201Z,6.35
2022-10-09T06:33:30.031Z,6.20
2022-10-09T06:36:09.399Z,7.25
2022-10-09T06:38:37.570Z,8.13
2022-10-09T06:41:06.158Z,6.15
2022-10-09T06:43:33.510Z,5.30
2022-10-09T06:46:01.266Z,7.10
2022-10-09T06:48:32.401Z,6.47
2022-10-09T06:51:09.854Z,6.53
2022-10-09T06:53:38.209Z,7.38
2022-10-09T06:56:05.569Z,7.85
2022-10-09T06:58:32.831Z,9.88
2022-10-09T07:01:04.194Z,9.30
2022-10-09T07:03:31.329Z,7.38
2022-10-09T07:06:10.572Z,7.72
2022-10-09T07:08:38.407Z,6.63
2022-10-09T07:11:09.683Z,6.10
2022-10-09T07:13:36.836Z,6.20
2022-10-09T07:16:05.116Z,6.22
2022-10-09T07:18:34.006Z,7.28
2022-10-09T07:21:02.190Z,8.95
2022-10-09T07:23:30.125Z,10.18
2022-10-09T07:25:57.354Z,7.03
2022-10-09T07:28:25.843Z,7.93
2022-10-09T07:30:53.569Z,4.95
2022-10-09T07:33:20.710Z,6.65
2022-10-09T07:35:58.117Z,7.15
2022-10-09T07:38:25.874Z,7.65
2022-10-09T07:40:53.660Z,6.93
2022-10-09T07:43:21.605Z,7.50
2022-10-09T07:45:48.776Z,5.35
2022-10-09T07:48:15.944Z,6.40
2022-10-09T07:50:43.045Z,6.55
2022-10-09T07:53:10.819Z,8.00
2022-10-09T07:55:37.916Z,4.85
2022-10-09T07:58:05.010Z,8.02
2022-10-09T08:00:32.443Z,12.45
2022-10-09T08:02:59.927Z,6.90
2022-10-09T08:05:27.018Z,7.57
2022-10-09T08:07:54.149Z,7.50
2022-10-09T08:10:21.430Z,5.55
2022-10-09T08:12:48.701Z,7.07
2022-10-09T08:15:16.113Z,7.35
2022-10-09T08:17:43.306Z,7.40
2022-10-09T08:20:10.476Z,6.20
2022-10-09T08:22:37.784Z,5.63
2022-10-09T08:25:05.147Z,4.05
2022-10-09T08:27:32.252Z,6.72
2022-10-09T08:29:59.350Z,4.28
2022-10-09T08:32:26.448Z,5.68
2022-10-09T08:34:53.535Z,3.47
2022-10-09T08:37:20.751Z,5.55
2022-10-09T08:39:47.845Z,5.50
2022-10-09T08:42:37.689Z,4.53
2022-10-09T08:45:04.952Z,8.65
2022-10-09T08:47:51.574Z,6.80
2022-10-09T08:50:29.950Z,3.83
2022-10-09T08:53:01.278Z,4.60
2022-10-09T08:55:42.211Z,8.18
2022-10-09T08:58:14.560Z,6.30
2022-10-09T09:00:53.102Z,3.55
2022-10-09T09:03:23.198Z,6.28
2022-10-09T09:06:16.544Z,4.45
2022-10-09T09:08:46.496Z,3.88
2022-10-09T09:11:33.831Z,5.03
2022-10-09T09:14:12.199Z,3.30
2022-10-09T09:16:39.253Z,4.85
2022-10-09T09:19:34.672Z,4.25
2022-10-09T09:22:01.755Z,4.60
2022-10-09T09:24:34.653Z,3.75
2022-10-09T09:27:03.513Z,4.30
2022-10-09T09:29:36.950Z,5.35
2022-10-09T09:32:04.168Z,4.15
2022-10-09T09:34:38.610Z,4.18
2022-10-09T09:37:05.690Z,3.92
2022-10-09T09:40:30.910Z,5.15
2022-10-09T09:42:22.358Z,4.55
2022-10-09T09:44:49.648Z,4.50
2022-10-09T09:47:21.028Z,2.85
2022-10-09T09:49:55.479Z,3.00
2022-10-09T09:52:23.027Z,2.08
2022-10-09T09:54:50.246Z,4.57
2022-10-09T09:57:22.635Z,5.00
2022-10-09T09:59:49.790Z,4.53
2022-10-09T10:02:21.122Z,6.85
2022-10-09T10:04:56.524Z,4.25
2022-10-09T10:07:29.461Z,2.75
2022-10-09T10:10:04.460Z,3.22
2022-10-09T10:12:31.654Z,2.40
2022-10-09T10:14:58.858Z,3.80
2022-10-09T10:17:29.151Z,3.75
2022-10-09T10:19:56.513Z,3.50
2022-10-09T10:22:28.797Z,3.30
2022-10-09T10:24:58.153Z,3.20
2022-10-09T10:27:32.774Z,4.07
2022-10-09T10:30:01.893Z,3.10
2022-10-09T10:32:47.583Z,2.05
2022-10-09T10:35:19.661Z,3.15
2022-10-09T10:37:48.797Z,4.75
2022-10-09T10:40:37.709Z,2.30
2022-10-09T10:43:10.574Z,3.38
2022-10-09T10:45:53.458Z,3.72
2022-10-09T10:48:24.040Z,3.70
2022-10-09T10:50:59.624Z,3.08
2022-10-09T10:53:26.666Z,1.73
2022-10-09T10:55:55.998Z,4.60
2022-10-09T10:58:28.304Z,3.58
2022-10-09T11:01:07.590Z,2.58
2022-10-09T11:04:00.467Z,4.32
2022-10-09T11:06:42.837Z,4.25
2022-10-09T11:09:09.883Z,2.50
2022-10-09T11:11:49.176Z,3.38
2022-10-09T11:14:20.051Z,4.93
2022-10-09T11:17:06.735Z,4.00
2022-10-09T11:19:45.881Z,3.08
2022-10-09T11:22:36.021Z,3.38
2022-10-09T11:25:22.679Z,1.67
2022-10-09T11:27:52.808Z,4.57
2022-10-09T11:30:20.379Z,3.15
2022-10-09T11:32:58.254Z,2.63
2022-10-09T11:35:29.325Z,3.70
2022-10-09T11:38:03.404Z,3.67
2022-10-09T11:40:33.091Z,5.05
2022-10-09T11:43:22.542Z,4.78
2022-10-09T11:45:59.710Z,2.53
2022-10-09T11:48:44.571Z,1.73
2022-10-09T11:51:16.022Z,1.95
2022-10-09T11:53:43.597Z,2.80
2022-10-09T11:56:22.646Z,3.78
2022-10-09T11:59:00.245Z,3.30
2022-10-09T12:01:32.657Z,6.10
2022-10-09T12:04:05.670Z,1.58
2022-10-09T12:06:33.583Z,4.03
2022-10-09T12:09:02.500Z,2.63
2022-10-09T12:11:30.216Z,3.03
2022-10-09T12:14:01.323Z,4.32
2022-10-09T12:16:39.594Z,4.10
2022-10-09T12:19:12.838Z,6.57
2022-10-09T12:22:09.263Z,3.58
2022-10-09T12:24:41.405Z,2.72
2022-10-09T12:27:08.769Z,3.75
2022-10-09T12:29:46.432Z,2.65
2022-10-09T12:32:16.611Z,3.45
2022-10-09T12:34:48.614Z,2.45
2022-10-09T12:37:35.939Z,2.28
2022-10-09T12:40:10.572Z,3.78
2022-10-09T12:42:37.689Z,3.67
2022-10-09T12:45:04.909Z,3.42
2022-10-09T12:47:35.443Z,4.47
2022-10-09T12:50:13.218Z,2.63
2022-10-09T12:52:48.542Z,1.67
2022-10-09T12:55:16.768Z,2.35
2022-10-09T12:57:44.199Z,3.33
2022-10-09T13:00:14.591Z,2.42
2022-10-09T13:02:41.924Z,3.95
2022-10-09T13:05:09.240Z,3.85
2022-10-09T13:07:36.353Z,2.42
2022-10-09T13:10:08.403Z,3.63
2022-10-09T13:12:35.883Z,5.30
2022-10-09T13:15:07.079Z,3.63
2022-10-09T13:17:42.301Z,5.47
2022-10-09T13:20:13.438Z,2.75
2022-10-09T13:22:40.571Z,2.92
2022-10-09T13:25:07.821Z,3.00
2022-10-09T13:27:38.039Z,3.67
2022-10-09T13:30:05.938Z,3.78
2022-10-09T13:32:33.226Z,2.50
2022-10-09T13:35:00.303Z,3.50
2022-10-09T13:37:27.784Z,11.88
2022-10-09T13:39:55.454Z,6.00
2022-10-09T13:42:25.069Z,2.85
2022-10-09T13:44:52.175Z,4.32
2022-10-09T13:47:24.033Z,4.85
2022-10-09T13:49:51.626Z,3.53
2022-10-09T13:52:18.710Z,3.40
2022-10-09T13:54:45.843Z,5.28
2022-10-09T13:57:14.008Z,3.53
2022-10-09T13:59:41.098Z,3.40
2022-10-09T14:02:08.270Z,4.95
2022-10-09T14:04:35.347Z,3.25
2022-10-09T14:07:02.436Z,4.47
2022-10-09T14:09:29.634Z,3.08
2022-10-09T14:11:56.935Z,4.28
2022-10-09T14:14:24.049Z,5.10
2022-10-09T14:16:51.273Z,1.73
2022-10-09T14:19:18.686Z,2.75
2022-10-09T14:21:46.878Z,2.92
2022-10-09T14:24:14.889Z,5.15
2022-10-09T14:26:44.257Z,3.33
2022-10-09T14:29:12.653Z,2.55
2022-10-09T14:31:39.802Z,1.63
2022-10-09T14:34:06.883Z,4.53
2022-10-09T14:36:34.264Z,4.75
2022-10-09T14:39:01.344Z,6.18
2022-10-09T14:41:32.177Z,9.55
2022-10-09T14:44:01.638Z,10.05
2022-10-09T14:46:29.747Z,2.55
2022-10-09T14:48:57.913Z,5.22
2022-10-09T14:51:26.484Z,4.55
2022-10-09T14:53:58.042Z,10.75
2022-10-09T14:56:25.648Z,4.88
2022-10-09T14:58:53.160Z,4.90
2022-10-09T15:01:21.266Z,5.03
2022-10-09T15:03:48.619Z,2.80
2022-10-09T15:06:23.749Z,4.90
2022-10-09T15:08:52.106Z,3.83
2022-10-09T15:11:19.162Z,3.38
2022-10-09T15:13:46.428Z,6.85
2022-10-09T15:16:17.706Z,4.35
2022-10-09T15:18:45.544Z,3.22
2022-10-09T15:21:14.404Z,5.00
2022-10-09T15:23:41.706Z,2.15
2022-10-09T15:26:09.389Z,3.28
2022-10-09T15:28:37.461Z,6.35
2022-10-09T15:31:05.570Z,4.38
2022-10-09T15:33:32.899Z,4.75
2022-10-09T15:36:00.440Z,9.15
2022-10-09T15:38:27.595Z,4.15
2022-10-09T15:40:56.370Z,3.67
2022-10-09T15:43:24.832Z,2.58
2022-10-09T15:45:54.101Z,5.35
2022-10-09T15:48:22.297Z,10.13
2022-10-09T15:50:52.037Z,6.50
2022-10-09T15:53:20.007Z,3.35
2022-10-09T15:55:47.896Z,4.75
2022-10-09T15:58:15.561Z,2.33
2022-10-09T16:00:44.004Z,5.00
2022-10-09T16:03:11.213Z,6.68
2022-10-09T16:05:43.222Z,4.85
2022-10-09T16:08:14.080Z,5.28
2022-10-09T16:10:46.411Z,6.28
2022-10-09T16:13:15.899Z,4.25
2022-10-09T16:15:43.513Z,5.13
2022-10-09T16:18:11.525Z,4.63
2022-10-09T16:20:39.707Z,6.28
2022-10-09T16:23:07.790Z,6.35
2022-10-09T16:25:34.991Z,7.18
2022-10-09T16:28:02.148Z,4.25
2022-10-09T16:30:29.454Z,4.93
2022-10-09T16:32:57.039Z,3.50
2022-10-09T16:35:24.410Z,3.53
2022-10-09T16:37:54.333Z,6.50
2022-10-09T16:40:32.603Z,5.38
2022-10-09T16:43:08.986Z,8.65
2022-10-09T16:45:36.059Z,9.60
2022-10-09T16:48:03.171Z,7.18
2022-10-09T16:50:30.383Z,5.82
2022-10-09T16:52:57.701Z,4.45
2022-10-09T16:55:24.894Z,8.50
2022-10-09T16:57:52.237Z,7.53
2022-10-09T17:00:19.907Z,4.57
2022-10-09T17:02:47.099Z,5.97
2022-10-09T17:05:14.268Z,6.03
2022-10-09T17:07:41.379Z,10.40
2022-10-09T17:10:09.430Z,5.15
2022-10-09T17:12:37.166Z,10.27
2022-10-09T17:15:05.522Z,8.00
2022-10-09T17:17:32.759Z,7.28
2022-10-09T17:19:59.980Z,5.43
2022-10-09T17:22:27.047Z,7.85
2022-10-09T17:24:55.072Z,6.00
2022-10-09T17:27:22.171Z,9.63
2022-10-09T17:29:49.249Z,7.30
2022-10-09T17:32:16.361Z,6.47
2022-10-09T17:34:45.818Z,10.38
2022-10-09T17:37:13.601Z,8.52
2022-10-09T17:39:43.408Z,6.30
2022-10-09T17:42:11.966Z,4.40
2022-10-09T17:44:39.110Z,5.72
2022-10-09T17:47:06.315Z,8.63
2022-10-09T17:49:33.508Z,6.28
2022-10-09T17:52:00.646Z,9.55
2022-10-09T17:54:27.722Z,11.63
2022-10-09T17:56:55.083Z,9.18
2022-10-09T17:59:22.173Z,10.73
2022-10-09T18:01:49.325Z,11.70
2022-10-09T18:04:17.171Z,10.27
2022-10-09T18:06:44.463Z,7.53
2022-10-09T18:09:12.298Z,5.93
2022-10-09T18:11:39.684Z,11.13
2022-10-09T18:14:07.428Z,9.85
2022-10-09T18:16:38.038Z,4.32
2022-10-09T18:19:08.160Z,5.93
2022-10-09T18:21:35.667Z,9.30
2022-10-09T18:24:02.787Z,13.85
2022-10-09T18:26:29.925Z,4.30
2022-10-09T18:28:57.051Z,7.40
2022-10-09T18:31:24.277Z,7.80
2022-10-09T18:33:52.170Z,11.25
2022-10-09T18:36:21.200Z,9.73
2022-10-09T18:38:49.969Z,8.80
2022-10-09T18:41:18.244Z,7.38
2022-10-09T18:43:45.399Z,8.88
2022-10-09T18:46:12.553Z,7.93
2022-10-09T18:48:40.995Z,8.63
2022-10-09T18:51:10.058Z,8.35
2022-10-09T18:53:42.317Z,6.72
2022-10-09T18:56:10.454Z,8.35
2022-10-09T18:58:38.626Z,11.68
2022-10-09T19:01:07.659Z,5.05
2022-10-09T19:03:36.571Z,6.78
2022-10-09T19:06:04.709Z,6.90
2022-10-09T19:08:31.897Z,6.80
2022-10-09T19:10:59.043Z,7.38
2022-10-09T19:13:26.230Z,6.25
2022-10-09T19:15:54.454Z,7.30
2022-10-09T19:18:22.104Z,8.05
2022-10-09T19:20:49.731Z,6.68
2022-10-09T19:23:16.946Z,7.50
2022-10-09T19:25:51.136Z,8.70
2022-10-09T19:28:18.672Z,7.43
2022-10-09T19:30:46.635Z,7.40
2022-10-09T19:33:14.167Z,6.63
2022-10-09T19:35:45.185Z,11.68
2022-10-09T19:38:12.996Z,8.68
2022-10-09T19:40:40.120Z,8.98
2022-10-09T19:43:07.314Z,11.52
2022-10-09T19:45:34.446Z,9.63
2022-10-09T19:48:01.558Z,6.38
2022-10-09T19:50:28.686Z,8.75
2022-10-09T19:52:55.829Z,10.80
2022-10-09T19:55:24.747Z,8.95
2022-10-09T19:57:53.595Z,7.95
2022-10-09T20:00:20.709Z,9.57
2022-10-09T20:02:48.104Z,8.40
2022-10-09T20:05:15.475Z,9.38
2022-10-09T20:07:42.562Z,7.15
2022-10-09T20:10:09.729Z,8.15
2022-10-09T20:12:36.844Z,7.55
2022-10-09T20:15:04.497Z,9.25
2022-10-09T20:17:31.657Z,5.55
2022-10-09T20:19:58.768Z,6.75
2022-10-09T20:22:25.899Z,7.68
2022-10-09T20:24:53.518Z,6.63
2022-10-09T20:27:20.873Z,9.38
2022-10-09T20:29:48.162Z,11.60
2022-10-09T20:32:15.286Z,13.30
2022-10-09T20:34:42.383Z,8.02
2022-10-09T20:37:09.496Z,8.57
2022-10-09T20:39:36.567Z,7.82
2022-10-09T20:42:04.134Z,7.43
2022-10-09T20:44:31.206Z,15.25
2022-10-09T20:46:58.308Z,9.57
2022-10-09T20:49:25.391Z,8.20
2022-10-09T20:51:56.756Z,7.13
2022-10-09T20:54:24.013Z,6.10
2022-10-09T20:56:51.500Z,11.25
2022-10-09T20:59:18.860Z,7.60
2022-10-09T21:01:46.109Z,8.27
2022-10-09T21:04:14.720Z,8.65
2022-10-09T21:06:41.945Z,7.55
2022-10-09T21:09:09.047Z,8.88
2022-10-09T21:11:36.194Z,11.60
2022-10-09T21:14:03.776Z,15.68
2022-10-09T21:16:30.926Z,9.93
2022-10-09T21:18:59.889Z,9.32
2022-10-09T21:21:27.742Z,9.27
2022-10-09T21:23:55.891Z,18.02
2022-10-09T21:26:23.466Z,11.30
2022-10-09T21:28:53.325Z,15.05
2022-10-09T21:31:26.203Z,14.50
2022-10-09T21:33:53.303Z,16.98
2022-10-09T21:36:26.470Z,16.02
2022-10-09T21:38:53.519Z,11.20
2022-10-09T21:41:20.592Z,14.35
2022-10-09T21:43:47.680Z,10.82
2022-10-09T21:46:14.827Z,9.88
2022-10-09T21:48:41.887Z,13.98
2022-10-09T21:51:08.971Z,11.32
2022-10-09T21:53:36.072Z,13.07
2022-10-09T21:56:03.900Z,11.35
2022-10-09T21:58:31.208Z,9.48
2022-10-09T22:00:59.245Z,8.43
2022-10-09T22:03:27.183Z,12.02
2022-10-09T22:05:54.555Z,12.38
2022-10-09T22:08:21.860Z,13.35
2022-10-09T22:10:49.610Z,18.75
2022-10-09T22:13:17.309Z,12.90
2022-10-09T22:15:50.164Z,17.95
2022-10-09T22:18:19.107Z,16.27
2022-10-09T22:20:49.067Z,10.85
2022-10-09T22:23:16.668Z,12.13
2022-10-09T22:25:43.737Z,14.68
2022-10-09T22:28:10.838Z,10.70
2022-10-09T22:30:37.940Z,10.80
2022-10-09T22:33:05.153Z,15.50
2022-10-09T22:35:32.211Z,9.40
2022-10-09T22:37:59.302Z,10.48
2022-10-09T22:40:26.440Z,7.53
2022-10-09T22:42:53.769Z,11.00
2022-10-09T22:45:20.927Z,9.38
2022-10-09T22:47:48.306Z,8.77
2022-10-09T22:50:15.404Z,10.43
2022-10-09T22:52:42.614Z,8.95
2022-10-09T22:55:09.758Z,10.63
2022-10-09T22:57:36.955Z,14.00
2022-10-09T23:00:05.485Z,8.90
2022-10-09T23:02:32.604Z,8.40
2022-10-09T23:04:59.696Z,12.20
2022-10-09T23:07:26.791Z,8.43
2022-10-09T23:09:53.864Z,8.15
2022-10-09T23:12:20.963Z,10.93
2022-10-09T23:14:48.106Z,7.03
2022-10-09T23:17:15.193Z,8.77
2022-10-09T23:19:42.275Z,8.40
2022-10-09T23:22:09.348Z,11.32
2022-10-09T23:24:36.455Z,9.32
2022-10-09T23:27:03.518Z,7.45
2022-10-09T23:29:30.607Z,10.90
2022-10-09T23:31:57.669Z,6.80
2022-10-09T23:34:24.767Z,9.60
2022-10-09T23:36:51.840Z,11.43
2022-10-09T23:39:18.986Z,13.30
2022-10-09T23:41:46.061Z,8.55
2022-10-09T23:44:13.147Z,13.63
2022-10-09T23:46:40.419Z,14.25
2022-10-09T23:49:07.667Z,13.20
2022-10-09T23:51:34.769Z,11.05
2022-10-09T23:54:01.874Z,10.55
2022-10-09T23:56:30.818Z,8.95
2022-10-09T23:58:58.596Z,9.60
